createdAt,value
2019-05-25T00:01:58.050Z,5.87
2019-05-25T00:04:29.379Z,5.20
2019-05-25T00:07:01.029Z,5.37
2019-05-25T00:09:32.240Z,5.67
2019-05-25T00:12:03.553Z,5.60
2019-05-25T00:14:34.770Z,5.62
2019-05-25T00:17:06.365Z,5.75
2019-05-25T00:19:37.963Z,5.17
2019-05-25T00:22:09.060Z,4.87
2019-05-25T00:24:40.764Z,5.10
2019-05-25T00:27:12.522Z,5.17
2019-05-25T00:29:43.833Z,5.08
2019-05-25T00:32:15.004Z,5.67
2019-05-25T00:34:47.466Z,5.60
2019-05-25T00:37:21.014Z,5.72
2019-05-25T00:39:52.195Z,5.55
2019-05-25T00:42:23.514Z,5.42
2019-05-25T00:44:54.813Z,5.20
2019-05-25T00:47:26.022Z,5.03
2019-05-25T00:49:57.375Z,5.08
2019-05-25T00:52:28.923Z,5.45
2019-05-25T00:55:00.324Z,5.17
2019-05-25T00:57:31.531Z,5.28
2019-05-25T01:00:03.015Z,5.33
2019-05-25T01:02:34.855Z,5.20
2019-05-25T01:05:06.703Z,4.67
2019-05-25T01:07:38.165Z,4.60
2019-05-25T01:10:09.830Z,5.25
2019-05-25T01:12:41.598Z,5.22
2019-05-25T01:15:14.522Z,5.08
2019-05-25T01:17:46.142Z,5.65
2019-05-25T01:20:17.825Z,5.42
2019-05-25T01:22:49.485Z,5.25
2019-05-25T01:25:21.420Z,5.15
2019-05-25T01:27:52.608Z,5.45
2019-05-25T01:30:23.886Z,5.17
2019-05-25T01:32:55.079Z,4.97
2019-05-25T01:35:26.704Z,5.20
2019-05-25T01:37:57.923Z,5.15
2019-05-25T01:40:29.210Z,5.28
2019-05-25T01:43:00.390Z,6.10
2019-05-25T01:45:31.526Z,5.53
2019-05-25T01:48:02.797Z,5.03
2019-05-25T01:50:34.489Z,4.65
2019-05-25T01:53:06.104Z,5.15
2019-05-25T01:55:37.399Z,4.80
2019-05-25T01:58:08.628Z,5.72
2019-05-25T02:00:41.292Z,4.72
2019-05-25T02:03:12.448Z,4.97
2019-05-25T02:05:43.705Z,5.28
2019-05-25T02:08:15.005Z,4.65
2019-05-25T02:10:46.222Z,5.45
2019-05-25T02:13:17.332Z,4.87
2019-05-25T02:15:49.086Z,5.30
2019-05-25T02:18:20.671Z,4.72
2019-05-25T02:20:51.989Z,4.90
2019-05-25T02:23:23.563Z,4.95
2019-05-25T02:25:55.067Z,4.80
2019-05-25T02:28:26.343Z,5.25
2019-05-25T02:30:57.633Z,5.05
2019-05-25T02:33:29.167Z,4.95
2019-05-25T02:36:00.738Z,4.60
2019-05-25T02:38:32.217Z,5.28
2019-05-25T02:41:03.528Z,5.20
2019-05-25T02:43:34.782Z,5.47
2019-05-25T02:46:06.783Z,4.90
2019-05-25T02:48:38.090Z,5.25
2019-05-25T02:51:09.344Z,5.17
2019-05-25T02:53:40.597Z,5.30
2019-05-25T02:56:12.185Z,5.40
2019-05-25T02:58:43.444Z,5.72
2019-05-25T03:01:15.896Z,6.08
2019-05-25T03:03:47.458Z,5.92
2019-05-25T03:06:21.215Z,5.90
2019-05-25T03:08:54.296Z,5.50
2019-05-25T03:11:26.402Z,6.10
2019-05-25T03:13:58.476Z,5.80
2019-05-25T03:16:29.781Z,5.53
2019-05-25T03:19:00.965Z,5.00
2019-05-25T03:21:32.240Z,5.97
2019-05-25T03:24:03.419Z,5.62
2019-05-25T03:26:34.557Z,5.40
2019-05-25T03:29:05.829Z,5.40
2019-05-25T03:31:37.402Z,5.03
2019-05-25T03:34:08.662Z,5.22
2019-05-25T03:36:40.303Z,5.30
2019-05-25T03:39:11.480Z,5.20
2019-05-25T03:41:42.790Z,5.62
2019-05-25T03:44:14.377Z,5.62
2019-05-25T03:46:46.694Z,5.33
2019-05-25T03:49:18.269Z,5.00
2019-05-25T03:51:49.474Z,5.30
2019-05-25T03:54:20.579Z,4.65
2019-05-25T03:56:51.866Z,5.22
2019-05-25T03:59:23.468Z,5.22
2019-05-25T04:01:54.797Z,5.55
2019-05-25T04:04:26.330Z,5.40
2019-05-25T04:06:57.543Z,5.15
2019-05-25T04:09:29.259Z,4.83
2019-05-25T04:12:00.536Z,5.62
2019-05-25T04:14:31.733Z,5.53
2019-05-25T04:17:02.963Z,5.53
2019-05-25T04:19:34.150Z,5.30
2019-05-25T04:22:05.650Z,5.35
2019-05-25T04:24:36.916Z,5.00
2019-05-25T04:27:08.181Z,5.62
2019-05-25T04:29:39.454Z,5.12
2019-05-25T04:32:11.497Z,5.30
2019-05-25T04:34:42.792Z,5.78
2019-05-25T04:37:14.362Z,5.72
2019-05-25T04:39:45.530Z,5.53
2019-05-25T04:42:16.763Z,6.05
2019-05-25T04:44:47.928Z,5.40
2019-05-25T04:47:26.859Z,5.62
2019-05-25T04:49:52.449Z,5.83
2019-05-25T04:52:23.675Z,6.22
2019-05-25T04:54:55.159Z,6.22
2019-05-25T04:57:26.303Z,5.97
2019-05-25T04:59:57.857Z,5.90
2019-05-25T05:02:29.826Z,6.12
2019-05-25T05:05:01.168Z,6.37
2019-05-25T05:07:32.579Z,5.83
2019-05-25T05:10:04.412Z,5.75
2019-05-25T05:12:35.702Z,5.28
2019-05-25T05:15:08.084Z,5.97
2019-05-25T05:17:39.293Z,5.45
2019-05-25T05:20:10.956Z,5.87
2019-05-25T05:22:42.750Z,5.80
2019-05-25T05:25:14.997Z,5.50
2019-05-25T05:27:47.189Z,5.42
2019-05-25T05:30:22.564Z,5.45
2019-05-25T05:32:53.841Z,5.62
2019-05-25T05:35:25.429Z,5.50
2019-05-25T05:37:58.990Z,5.40
2019-05-25T05:40:30.468Z,5.90
2019-05-25T05:43:05.674Z,6.20
2019-05-25T05:45:41.054Z,5.30
2019-05-25T05:48:14.454Z,5.83
2019-05-25T05:50:48.944Z,5.50
2019-05-25T05:53:23.418Z,5.72
2019-05-25T05:55:54.693Z,5.00
2019-05-25T05:58:26.298Z,9.13
2019-05-25T06:00:57.604Z,7.10
2019-05-25T06:03:29.053Z,9.13
2019-05-25T06:06:00.544Z,8.88
2019-05-25T06:08:31.888Z,8.20
2019-05-25T06:11:03.747Z,8.70
2019-05-25T06:13:34.892Z,5.95
2019-05-25T06:16:06.551Z,6.03
2019-05-25T06:18:37.871Z,6.80
2019-05-25T06:21:09.376Z,7.67
2019-05-25T06:23:40.875Z,7.35
2019-05-25T06:26:12.176Z,6.70
2019-05-25T06:28:43.309Z,7.05
2019-05-25T06:31:14.606Z,7.42
2019-05-25T06:33:46.189Z,8.68
2019-05-25T06:36:17.447Z,10.05
2019-05-25T06:38:48.740Z,8.43
2019-05-25T06:41:20.382Z,9.00
2019-05-25T06:43:51.966Z,10.98
2019-05-25T06:46:23.239Z,11.80
2019-05-25T06:48:54.406Z,11.25
2019-05-25T06:51:25.646Z,12.47
2019-05-25T06:53:56.859Z,11.75
2019-05-25T06:56:28.292Z,11.33
2019-05-25T06:58:59.582Z,12.10
2019-05-25T07:01:30.782Z,11.50
2019-05-25T07:04:02.086Z,11.18
2019-05-25T07:06:33.380Z,11.22
2019-05-25T07:09:06.651Z,11.00
2019-05-25T07:11:37.916Z,11.08
2019-05-25T07:14:09.224Z,11.08
2019-05-25T07:16:40.749Z,11.35
2019-05-25T07:19:13.067Z,10.30
2019-05-25T07:21:44.261Z,11.12
2019-05-25T07:24:15.916Z,10.65
2019-05-25T07:26:47.198Z,9.68
2019-05-25T07:29:18.510Z,10.32
2019-05-25T07:31:49.701Z,10.70
2019-05-25T07:34:21.341Z,11.40
2019-05-25T07:36:52.652Z,10.30
2019-05-25T07:39:23.910Z,10.60
2019-05-25T07:41:55.236Z,10.82
2019-05-25T07:44:26.575Z,10.93
2019-05-25T07:46:57.799Z,11.00
2019-05-25T07:49:29.700Z,10.08
2019-05-25T07:52:02.830Z,10.60
2019-05-25T07:54:34.180Z,10.28
2019-05-25T07:57:05.858Z,10.88
2019-05-25T07:59:38.362Z,11.35
2019-05-25T08:02:10.617Z,10.43
2019-05-25T08:04:41.787Z,11.08
2019-05-25T08:07:13.014Z,12.45
2019-05-25T08:09:44.350Z,11.08
2019-05-25T08:12:15.926Z,11.15
2019-05-25T08:14:48.230Z,10.70
2019-05-25T08:17:19.824Z,11.48
2019-05-25T08:19:51.504Z,12.07
2019-05-25T08:22:22.728Z,11.73
2019-05-25T08:24:54.314Z,11.73
2019-05-25T08:27:25.672Z,12.03
2019-05-25T08:29:57.273Z,12.58
2019-05-25T08:32:29.008Z,11.93
2019-05-25T08:35:00.338Z,12.93
2019-05-25T08:37:32.271Z,12.30
2019-05-25T08:40:04.016Z,12.07
2019-05-25T08:42:35.630Z,12.37
2019-05-25T08:45:07.658Z,12.78
2019-05-25T08:47:38.987Z,11.90
2019-05-25T08:50:10.749Z,11.78
2019-05-25T08:52:42.408Z,12.20
2019-05-25T08:55:14.396Z,11.68
2019-05-25T08:57:45.604Z,10.63
2019-05-25T09:00:17.241Z,10.98
2019-05-25T09:02:48.912Z,12.25
2019-05-25T09:05:21.491Z,11.75
2019-05-25T09:07:52.827Z,12.23
2019-05-25T09:10:24.145Z,10.58
2019-05-25T09:12:55.341Z,11.38
2019-05-25T09:15:26.766Z,11.30
2019-05-25T09:17:58.954Z,10.93
2019-05-25T09:20:30.277Z,11.75
2019-05-25T09:23:01.563Z,11.45
2019-05-25T09:25:32.879Z,11.60
2019-05-25T09:28:04.229Z,10.13
2019-05-25T09:30:35.521Z,11.03
2019-05-25T09:33:06.964Z,11.43
2019-05-25T09:35:38.289Z,10.38
2019-05-25T09:38:09.542Z,10.72
2019-05-25T09:40:40.787Z,10.15
2019-05-25T09:43:12.052Z,9.43
2019-05-25T09:45:43.494Z,10.23
2019-05-25T09:48:15.838Z,10.72
2019-05-25T09:50:47.106Z,10.03
2019-05-25T09:53:18.853Z,9.55
2019-05-25T09:55:50.397Z,9.68
2019-05-25T09:58:21.934Z,9.83
2019-05-25T10:00:53.161Z,9.40
2019-05-25T10:03:24.641Z,8.63
2019-05-25T10:05:55.926Z,9.08
2019-05-25T10:08:27.203Z,9.40
2019-05-25T10:10:58.798Z,9.63
2019-05-25T10:13:30.002Z,10.00
2019-05-25T10:16:01.214Z,8.70
2019-05-25T10:18:32.609Z,8.75
2019-05-25T10:21:04.161Z,9.20
2019-05-25T10:23:35.638Z,8.85
2019-05-25T10:26:07.283Z,8.20
2019-05-25T10:28:38.542Z,8.85
2019-05-25T10:31:09.850Z,8.33
2019-05-25T10:33:41.038Z,7.80
2019-05-25T10:36:12.954Z,7.37
2019-05-25T10:38:45.113Z,6.40
2019-05-25T10:41:16.331Z,6.25
2019-05-25T10:43:47.847Z,7.00
2019-05-25T10:46:19.173Z,6.58
2019-05-25T10:48:50.842Z,6.78
2019-05-25T10:51:22.148Z,7.17
2019-05-25T10:53:53.391Z,8.15
2019-05-25T10:56:24.609Z,7.22
2019-05-25T10:58:55.821Z,6.87
2019-05-25T11:01:27.188Z,7.47
2019-05-25T11:03:58.474Z,8.38
2019-05-25T11:06:29.783Z,8.28
2019-05-25T11:09:00.996Z,8.05
2019-05-25T11:11:33.084Z,9.28
2019-05-25T11:14:04.359Z,8.50
2019-05-25T11:16:35.689Z,9.13
2019-05-25T11:19:07.331Z,8.73
2019-05-25T11:21:38.904Z,9.23
2019-05-25T11:24:10.160Z,9.15
2019-05-25T11:26:41.466Z,9.40
2019-05-25T11:29:12.733Z,10.05
2019-05-25T11:31:53.967Z,9.55
2019-05-25T11:34:17.062Z,9.50
2019-05-25T11:36:48.714Z,10.78
2019-05-25T11:39:19.937Z,10.85
2019-05-25T11:41:51.248Z,12.07
2019-05-25T11:44:22.524Z,10.68
2019-05-25T11:46:54.094Z,11.12
2019-05-25T11:49:25.972Z,10.35
2019-05-25T11:51:57.285Z,10.48
2019-05-25T11:54:28.532Z,10.85
2019-05-25T11:57:00.508Z,10.85
2019-05-25T11:59:32.175Z,10.15
2019-05-25T12:02:03.469Z,10.00
2019-05-25T12:04:35.759Z,10.50
2019-05-25T12:07:07.061Z,10.68
2019-05-25T12:09:39.328Z,11.25
2019-05-25T12:12:10.636Z,11.35
2019-05-25T12:14:42.297Z,11.97
2019-05-25T12:17:13.550Z,11.38
2019-05-25T12:19:44.758Z,11.28
2019-05-25T12:22:16.052Z,11.73
2019-05-25T12:24:47.185Z,10.60
2019-05-25T12:27:18.492Z,11.50
2019-05-25T12:29:49.710Z,10.85
2019-05-25T12:32:22.378Z,11.00
2019-05-25T12:34:54.448Z,10.08
2019-05-25T12:37:25.708Z,11.08
2019-05-25T12:39:56.941Z,11.08
2019-05-25T12:42:28.175Z,12.07
2019-05-25T12:44:59.496Z,11.22
2019-05-25T12:47:30.830Z,11.93
2019-05-25T12:50:02.519Z,11.33
2019-05-25T12:52:33.745Z,11.22
2019-05-25T12:55:05.187Z,11.53
2019-05-25T12:57:36.554Z,11.97
2019-05-25T13:00:15.718Z,12.18
2019-05-25T13:02:41.678Z,12.25
2019-05-25T13:05:13.697Z,13.15
2019-05-25T13:07:45.031Z,13.15
2019-05-25T13:10:16.705Z,11.97
2019-05-25T13:12:48.095Z,13.72
2019-05-25T13:15:19.958Z,12.47
2019-05-25T13:17:51.162Z,11.15
2019-05-25T13:20:22.343Z,9.03
2019-05-25T13:22:53.722Z,6.70
2019-05-25T13:25:25.020Z,5.75
2019-05-25T13:27:56.360Z,6.03
2019-05-25T13:30:27.744Z,6.60
2019-05-25T13:32:59.381Z,5.97
2019-05-25T13:35:30.669Z,5.95
2019-05-25T13:38:01.886Z,5.85
2019-05-25T13:40:33.235Z,5.62
2019-05-25T13:43:04.482Z,6.47
2019-05-25T13:45:35.754Z,6.22
2019-05-25T13:48:07.055Z,7.47
2019-05-25T13:50:38.385Z,7.25
2019-05-25T13:53:09.847Z,8.98
2019-05-25T13:55:41.051Z,6.17
2019-05-25T13:58:13.698Z,4.75
2019-05-25T14:00:44.875Z,4.67
2019-05-25T14:03:16.102Z,5.08
2019-05-25T14:05:47.706Z,5.37
2019-05-25T14:08:19.303Z,5.35
2019-05-25T14:10:50.563Z,5.90
2019-05-25T14:13:22.156Z,7.22
2019-05-25T14:16:06.224Z,6.80
2019-05-25T14:18:26.352Z,7.65
2019-05-25T14:20:57.604Z,6.10
2019-05-25T14:23:29.249Z,5.92
2019-05-25T14:26:01.120Z,5.58
2019-05-25T14:28:32.452Z,6.65
2019-05-25T14:31:03.727Z,6.05
2019-05-25T14:33:34.910Z,6.28
2019-05-25T14:36:06.361Z,5.40
2019-05-25T14:38:37.525Z,6.20
2019-05-25T14:41:09.395Z,5.03
2019-05-25T14:43:40.705Z,5.85
2019-05-25T14:46:26.904Z,4.30
2019-05-25T14:48:45.921Z,4.85
2019-05-25T14:51:17.086Z,5.75
2019-05-25T14:53:48.598Z,5.22
2019-05-25T14:56:19.884Z,5.20
2019-05-25T14:58:51.500Z,5.90
2019-05-25T15:01:22.975Z,6.25
2019-05-25T15:03:54.348Z,6.12
2019-05-25T15:06:25.843Z,5.72
2019-05-25T15:08:57.079Z,6.15
2019-05-25T15:11:28.402Z,5.97
2019-05-25T15:14:00.146Z,5.50
2019-05-25T15:16:31.414Z,6.92
2019-05-25T15:19:03.934Z,6.80
2019-05-25T15:21:35.858Z,6.33
2019-05-25T15:24:07.764Z,5.83
2019-05-25T15:26:40.128Z,6.03
2019-05-25T15:29:12.516Z,5.83
2019-05-25T15:31:44.444Z,5.90
2019-05-25T15:34:17.305Z,6.90
2019-05-25T15:36:48.876Z,7.72
2019-05-25T15:39:20.638Z,8.60
2019-05-25T15:41:51.916Z,9.68
2019-05-25T15:44:23.530Z,8.13
2019-05-25T15:46:54.879Z,9.20
2019-05-25T15:49:33.496Z,9.63
2019-05-25T15:51:59.118Z,9.45
2019-05-25T15:54:30.675Z,9.15
2019-05-25T15:57:02.327Z,10.18
2019-05-25T15:59:33.773Z,10.08
2019-05-25T16:02:06.148Z,10.85
2019-05-25T16:04:37.795Z,9.78
2019-05-25T16:07:09.321Z,9.18
2019-05-25T16:09:41.792Z,9.00
2019-05-25T16:12:13.478Z,8.35
2019-05-25T16:14:44.594Z,9.48
2019-05-25T16:17:15.793Z,8.73
2019-05-25T16:19:47.072Z,8.90
2019-05-25T16:22:18.317Z,8.90
2019-05-25T16:24:49.527Z,7.45
2019-05-25T16:27:20.740Z,7.67
2019-05-25T16:29:52.021Z,7.72
2019-05-25T16:32:23.477Z,8.40
2019-05-25T16:34:55.062Z,9.68
2019-05-25T16:37:26.497Z,9.10
2019-05-25T16:39:57.759Z,9.68
2019-05-25T16:42:29.518Z,10.75
2019-05-25T16:45:05.327Z,8.95
2019-05-25T16:47:34.251Z,9.18
2019-05-25T16:50:06.335Z,9.15
2019-05-25T16:52:37.707Z,9.40
2019-05-25T16:55:10.283Z,10.70
2019-05-25T16:57:44.013Z,9.18
2019-05-25T17:00:19.974Z,10.38
2019-05-25T17:02:51.275Z,9.93
2019-05-25T17:05:22.876Z,10.63
2019-05-25T17:07:54.380Z,10.95
2019-05-25T17:10:25.735Z,11.25
2019-05-25T17:12:57.037Z,11.00
2019-05-25T17:15:28.608Z,11.05
2019-05-25T17:18:04.380Z,11.08
2019-05-25T17:20:33.362Z,11.70
2019-05-25T17:23:04.748Z,10.88
2019-05-25T17:25:35.967Z,11.83
2019-05-25T17:28:07.633Z,11.50
2019-05-25T17:30:43.158Z,11.25
2019-05-25T17:33:15.291Z,12.23
2019-05-25T17:35:46.586Z,12.47
2019-05-25T17:38:18.682Z,11.60
2019-05-25T17:40:51.505Z,13.58
2019-05-25T17:43:23.216Z,12.82
2019-05-25T17:45:54.782Z,13.18
2019-05-25T17:48:26.128Z,12.15
2019-05-25T17:50:57.751Z,13.08
2019-05-25T17:53:29.514Z,11.73
2019-05-25T17:56:01.103Z,13.03
2019-05-25T17:58:32.442Z,13.75
2019-05-25T18:01:03.813Z,12.60
2019-05-25T18:03:35.006Z,12.50
2019-05-25T18:06:06.689Z,12.20
2019-05-25T18:08:38.417Z,12.55
2019-05-25T18:11:10.276Z,11.03
2019-05-25T18:13:41.949Z,10.43
2019-05-25T18:16:13.538Z,11.25
2019-05-25T18:18:45.353Z,11.33
2019-05-25T18:21:16.636Z,11.55
2019-05-25T18:23:48.553Z,11.68
2019-05-25T18:26:19.917Z,10.38
2019-05-25T18:28:51.565Z,10.80
2019-05-25T18:31:22.914Z,11.03
2019-05-25T18:33:54.088Z,11.38
2019-05-25T18:36:25.573Z,10.75
2019-05-25T18:38:57.033Z,13.40
2019-05-25T18:41:28.730Z,12.75
2019-05-25T18:44:00.062Z,12.58
2019-05-25T18:46:31.274Z,11.68
2019-05-25T18:49:02.862Z,12.07
2019-05-25T18:51:34.266Z,12.28
2019-05-25T18:54:05.512Z,13.18
2019-05-25T18:56:37.002Z,12.33
2019-05-25T18:59:09.294Z,11.95
2019-05-25T19:01:40.743Z,13.20
2019-05-25T19:04:12.073Z,12.45
2019-05-25T19:06:43.759Z,11.30
2019-05-25T19:09:15.373Z,11.83
2019-05-25T19:11:46.651Z,10.93
2019-05-25T19:14:19.307Z,11.20
2019-05-25T19:16:50.867Z,11.33
2019-05-25T19:19:22.029Z,10.90
2019-05-25T19:21:53.382Z,10.53
2019-05-25T19:24:25.010Z,10.05
2019-05-25T19:26:56.148Z,9.25
2019-05-25T19:29:27.378Z,7.62
2019-05-25T19:32:00.041Z,7.60
2019-05-25T19:34:32.841Z,8.00
2019-05-25T19:37:04.147Z,7.65
2019-05-25T19:39:35.944Z,8.80
2019-05-25T19:42:07.209Z,7.12
2019-05-25T19:44:39.611Z,6.30
2019-05-25T19:47:11.133Z,4.90
2019-05-25T19:49:42.350Z,3.80
2019-05-25T19:52:14.033Z,3.90
2019-05-25T19:54:45.357Z,4.65
2019-05-25T19:57:16.917Z,6.03
2019-05-25T19:59:48.151Z,6.50
2019-05-25T20:02:19.431Z,6.87
2019-05-25T20:04:50.982Z,8.60
2019-05-25T20:07:22.274Z,8.43
2019-05-25T20:09:54.268Z,9.68
2019-05-25T20:12:25.925Z,10.20
2019-05-25T20:14:57.086Z,10.00
